createdAt,value
2017-01-24T00:00:25.876Z,13.38
2017-01-24T00:01:06.367Z,13.18
2017-01-24T00:01:46.858Z,13.48
2017-01-24T00:02:27.356Z,13.57
2017-01-24T00:03:07.852Z,13.67
2017-01-24T00:03:48.354Z,13.38
2017-01-24T00:04:28.852Z,13.48
2017-01-24T00:05:09.363Z,13.38
2017-01-24T00:05:49.850Z,13.38
2017-01-24T00:06:30.364Z,13.38
2017-01-24T00:07:10.850Z,13.28
2017-01-24T00:07:51.362Z,13.09
2017-01-24T00:08:31.849Z,13.48
2017-01-24T00:09:12.365Z,13.18
2017-01-24T00:09:52.851Z,13.18
2017-01-24T00:10:33.344Z,13.28
2017-01-24T00:11:13.843Z,13.38
2017-01-24T00:11:54.348Z,13.57
2017-01-24T00:12:34.851Z,13.48
2017-01-24T00:13:15.355Z,13.18
2017-01-24T00:13:55.844Z,13.18
2017-01-24T00:14:36.342Z,13.28
2017-01-24T00:15:16.822Z,13.57
2017-01-24T00:15:57.308Z,13.76
2017-01-24T00:16:37.804Z,13.09
2017-01-24T00:17:18.289Z,13.57
2017-01-24T00:17:58.785Z,13.67
2017-01-24T00:18:39.270Z,13.38
2017-01-24T00:19:20.362Z,13.67
2017-01-24T00:20:00.261Z,13.28
2017-01-24T00:20:40.813Z,13.38
2017-01-24T00:21:21.301Z,13.48
2017-01-24T00:22:01.798Z,13.57
2017-01-24T00:22:42.303Z,13.38
2017-01-24T00:23:22.782Z,13.76
2017-01-24T00:24:03.282Z,13.38
2017-01-24T00:24:43.795Z,13.38
2017-01-24T00:25:24.282Z,13.57
2017-01-24T00:26:04.778Z,13.38
2017-01-24T00:26:45.273Z,13.67
2017-01-24T00:27:25.756Z,13.18
2017-01-24T00:28:06.261Z,13.67
2017-01-24T00:28:46.732Z,13.67
2017-01-24T00:29:27.243Z,13.48
2017-01-24T00:30:07.730Z,13.48
2017-01-24T00:30:48.220Z,13.38
2017-01-24T00:31:28.704Z,13.38
2017-01-24T00:32:09.197Z,13.38
2017-01-24T00:32:49.696Z,13.76
2017-01-24T00:33:30.186Z,13.28
2017-01-24T00:34:10.682Z,13.28
2017-01-24T00:34:51.175Z,13.57
2017-01-24T00:35:31.686Z,13.57
2017-01-24T00:36:12.171Z,13.57
2017-01-24T00:36:52.665Z,13.38
2017-01-24T00:37:33.148Z,13.28
2017-01-24T00:38:13.639Z,13.57
2017-01-24T00:38:54.128Z,13.57
2017-01-24T00:39:34.619Z,13.48
2017-01-24T00:40:15.125Z,13.57
2017-01-24T00:40:55.616Z,13.38
2017-01-24T00:41:36.110Z,13.57
2017-01-24T00:42:16.614Z,13.38
2017-01-24T00:42:57.124Z,13.28
2017-01-24T00:43:37.612Z,13.38
2017-01-24T00:44:18.270Z,13.57
2017-01-24T00:44:58.762Z,13.38
2017-01-24T00:45:39.243Z,13.48
2017-01-24T00:46:19.744Z,13.28
2017-01-24T00:47:00.261Z,13.28
2017-01-24T00:47:40.746Z,13.57
2017-01-24T00:48:21.227Z,13.48
2017-01-24T00:49:01.711Z,13.57
2017-01-24T00:49:42.219Z,13.67
2017-01-24T00:50:22.713Z,13.48
2017-01-24T00:51:03.208Z,13.67
2017-01-24T00:51:43.713Z,13.09
2017-01-24T00:52:24.217Z,13.18
2017-01-24T00:53:04.705Z,13.76
2017-01-24T00:53:45.200Z,13.18
2017-01-24T00:54:25.702Z,13.09
2017-01-24T00:55:06.156Z,13.67
2017-01-24T00:55:46.647Z,13.38
2017-01-24T00:56:27.130Z,13.57
2017-01-24T00:57:07.624Z,13.67
2017-01-24T00:57:48.128Z,13.67
2017-01-24T00:58:28.614Z,13.48
2017-01-24T00:59:09.108Z,13.38
2017-01-24T00:59:50.114Z,13.28
2017-01-24T01:00:30.605Z,13.57
2017-01-24T01:01:11.098Z,13.09
2017-01-24T01:01:51.586Z,13.18
2017-01-24T01:02:32.081Z,13.28
2017-01-24T01:03:12.560Z,13.38
2017-01-24T01:03:53.064Z,13.09
2017-01-24T01:04:33.555Z,13.48
2017-01-24T01:05:14.053Z,13.28
2017-01-24T01:05:54.551Z,13.67
2017-01-24T01:06:35.036Z,13.67
2017-01-24T01:07:15.527Z,13.28
2017-01-24T01:07:56.005Z,13.48
2017-01-24T01:08:36.491Z,13.56
2017-01-24T01:09:16.990Z,13.67
2017-01-24T01:09:57.452Z,13.18
2017-01-24T01:10:37.947Z,13.18
2017-01-24T01:11:18.443Z,13.67
2017-01-24T01:11:58.942Z,13.57
2017-01-24T01:12:39.445Z,13.38
2017-01-24T01:13:19.987Z,13.38
2017-01-24T01:14:00.441Z,13.57
2017-01-24T01:14:40.958Z,13.38
2017-01-24T01:15:21.441Z,13.48
2017-01-24T01:16:01.967Z,13.28
2017-01-24T01:16:42.453Z,12.99
2017-01-24T01:17:22.947Z,13.67
2017-01-24T01:18:03.436Z,13.67
2017-01-24T01:18:43.933Z,13.38
2017-01-24T01:19:24.550Z,13.48
2017-01-24T01:20:05.053Z,13.57
2017-01-24T01:20:45.540Z,13.48
2017-01-24T01:21:26.037Z,13.48
2017-01-24T01:22:06.538Z,13.38
2017-01-24T01:22:47.046Z,13.28
2017-01-24T01:23:27.534Z,13.48
2017-01-24T01:24:08.044Z,13.56
2017-01-24T01:24:48.533Z,13.57
2017-01-24T01:25:29.044Z,13.48
2017-01-24T01:26:09.534Z,13.38
2017-01-24T01:26:50.031Z,13.48
2017-01-24T01:27:30.520Z,13.76
2017-01-24T01:28:11.011Z,13.67
2017-01-24T01:28:51.499Z,13.38
2017-01-24T01:29:31.982Z,13.66
2017-01-24T01:30:12.491Z,13.38
2017-01-24T01:30:52.979Z,13.57
2017-01-24T01:31:33.472Z,13.57
2017-01-24T01:32:13.967Z,13.48
2017-01-24T01:32:54.460Z,13.37
2017-01-24T01:33:34.948Z,13.28
2017-01-24T01:34:15.439Z,13.38
2017-01-24T01:34:55.935Z,13.48
2017-01-24T01:35:36.423Z,13.56
2017-01-24T01:36:16.917Z,13.67
2017-01-24T01:36:57.399Z,13.48
2017-01-24T01:37:37.898Z,13.48
2017-01-24T01:38:18.395Z,13.57
2017-01-24T01:38:58.889Z,13.48
2017-01-24T01:39:39.379Z,13.57
2017-01-24T01:40:19.866Z,13.57
2017-01-24T01:41:00.362Z,13.67
2017-01-24T01:41:40.866Z,13.76
2017-01-24T01:42:21.349Z,13.38
2017-01-24T01:43:01.836Z,13.57
2017-01-24T01:43:42.320Z,13.38
2017-01-24T01:44:22.821Z,13.57
2017-01-24T01:45:03.312Z,13.67
2017-01-24T01:45:43.809Z,13.18
2017-01-24T01:46:24.306Z,13.28
2017-01-24T01:47:04.820Z,13.38
2017-01-24T01:47:45.311Z,13.28
2017-01-24T01:48:25.803Z,13.18
2017-01-24T01:49:06.313Z,13.38
2017-01-24T01:49:46.803Z,13.18
2017-01-24T01:50:27.303Z,13.28
2017-01-24T01:51:07.814Z,13.18
2017-01-24T01:51:48.305Z,13.57
2017-01-24T01:52:28.803Z,13.18
2017-01-24T01:53:09.283Z,13.28
2017-01-24T01:53:49.782Z,13.38
2017-01-24T01:54:30.269Z,13.38
2017-01-24T01:55:10.756Z,13.57
2017-01-24T01:55:51.263Z,13.67
2017-01-24T01:56:31.750Z,13.57
2017-01-24T01:57:12.243Z,13.67
2017-01-24T01:57:52.725Z,13.57
2017-01-24T01:58:33.212Z,13.57
2017-01-24T01:59:13.711Z,13.38
2017-01-24T01:59:54.202Z,13.47
2017-01-24T02:00:34.704Z,13.57
2017-01-24T02:01:15.193Z,13.57
2017-01-24T02:01:55.687Z,13.09
2017-01-24T02:02:36.181Z,13.67
2017-01-24T02:03:16.672Z,13.28
2017-01-24T02:05:04.150Z,13.38
2017-01-24T02:05:44.636Z,13.47
2017-01-24T02:06:25.130Z,13.38
2017-01-24T02:07:05.613Z,13.48
2017-01-24T02:07:46.117Z,13.28
2017-01-24T02:08:26.606Z,13.48
2017-01-24T02:09:07.093Z,13.28
2017-01-24T02:09:47.580Z,13.18
2017-01-24T02:10:28.056Z,13.28
2017-01-24T02:11:08.548Z,13.18
2017-01-24T02:11:49.044Z,13.57
2017-01-24T02:12:29.530Z,13.48
2017-01-24T02:13:10.023Z,13.38
2017-01-24T02:13:50.510Z,13.48
2017-01-24T02:14:30.992Z,13.48
2017-01-24T02:15:11.474Z,13.38
2017-01-24T02:15:51.955Z,13.38
2017-01-24T02:16:32.455Z,13.48
2017-01-24T02:17:12.943Z,13.57
2017-01-24T02:17:53.452Z,13.57
2017-01-24T02:18:33.942Z,13.38
2017-01-24T02:19:14.434Z,13.67
2017-01-24T02:19:54.917Z,13.28
2017-01-24T02:20:35.404Z,13.38
2017-01-24T02:21:15.901Z,13.48
2017-01-24T02:21:56.389Z,13.38
2017-01-24T02:22:36.884Z,13.37
2017-01-24T02:23:17.384Z,13.38
2017-01-24T02:23:57.896Z,13.38
2017-01-24T02:24:38.387Z,13.38
2017-01-24T02:25:18.879Z,13.38
2017-01-24T02:25:59.374Z,13.67
2017-01-24T02:26:39.865Z,13.37
2017-01-24T02:27:20.352Z,13.28
2017-01-24T02:28:00.838Z,13.38
2017-01-24T02:28:41.340Z,13.47
2017-01-24T02:29:21.823Z,13.38
2017-01-24T02:30:02.311Z,13.48
2017-01-24T02:30:42.797Z,13.37
2017-01-24T02:31:23.280Z,13.38
2017-01-24T02:32:03.783Z,13.38
2017-01-24T02:32:44.304Z,13.28
2017-01-24T02:33:24.784Z,13.66
2017-01-24T02:34:05.273Z,13.48
2017-01-24T02:34:45.768Z,13.28
2017-01-24T02:35:26.264Z,13.48
2017-01-24T02:36:06.740Z,13.48
2017-01-24T02:36:47.235Z,13.95
2017-01-24T02:37:27.719Z,13.57
2017-01-24T02:38:08.214Z,13.38
2017-01-24T02:38:48.697Z,13.38
2017-01-24T02:39:29.187Z,13.38
2017-01-24T02:40:09.694Z,13.38
2017-01-24T02:40:50.174Z,13.57
2017-01-24T02:41:30.678Z,13.56
2017-01-24T02:42:11.175Z,13.67
2017-01-24T02:42:51.676Z,13.38
2017-01-24T02:43:32.160Z,13.67
2017-01-24T02:44:12.672Z,13.67
2017-01-24T02:44:53.162Z,13.47
2017-01-24T02:45:33.657Z,13.48
2017-01-24T02:46:14.139Z,13.48
2017-01-24T02:46:54.628Z,13.48
2017-01-24T02:47:35.117Z,13.56
2017-01-24T02:48:15.606Z,13.47
2017-01-24T02:48:56.101Z,13.57
2017-01-24T02:49:36.595Z,13.57
2017-01-24T02:50:17.087Z,13.85
2017-01-24T02:50:57.576Z,13.67
2017-01-24T02:51:38.068Z,13.67
2017-01-24T02:52:18.563Z,13.47
2017-01-24T02:52:59.052Z,13.56
2017-01-24T02:53:39.567Z,13.48
2017-01-24T02:54:20.050Z,13.48
2017-01-24T02:55:00.549Z,13.37
2017-01-24T02:55:41.073Z,13.38
2017-01-24T02:56:21.577Z,13.76
2017-01-24T02:57:02.065Z,13.56
2017-01-24T02:57:42.558Z,13.66
2017-01-24T02:58:23.048Z,13.66
2017-01-24T02:59:03.547Z,13.56
2017-01-24T02:59:44.042Z,13.56
2017-01-24T03:00:24.544Z,13.67
2017-01-24T03:01:05.045Z,13.56
2017-01-24T03:01:45.539Z,13.57
2017-01-24T03:02:26.040Z,13.56
2017-01-24T03:03:06.554Z,13.47
2017-01-24T03:03:47.040Z,13.48
2017-01-24T03:04:27.539Z,13.66
2017-01-24T03:05:08.038Z,13.66
2017-01-24T03:05:48.517Z,13.48
2017-01-24T03:06:29.142Z,13.76
2017-01-24T03:07:09.640Z,13.28
2017-01-24T03:07:50.139Z,13.37
2017-01-24T03:08:30.634Z,13.67
2017-01-24T03:09:11.120Z,13.47
2017-01-24T03:09:51.635Z,13.47
2017-01-24T03:10:32.117Z,13.66
2017-01-24T03:11:12.613Z,13.67
2017-01-24T03:11:53.109Z,13.48
2017-01-24T03:12:33.594Z,13.48
2017-01-24T03:13:14.092Z,13.38
2017-01-24T03:13:54.581Z,13.48
2017-01-24T03:14:35.081Z,13.37
2017-01-24T03:15:15.565Z,13.38
2017-01-24T03:15:56.060Z,13.56
2017-01-24T03:16:36.558Z,13.66
2017-01-24T03:17:17.133Z,13.38
2017-01-24T03:17:57.681Z,13.37
2017-01-24T03:18:38.193Z,13.48
2017-01-24T03:19:18.710Z,13.57
2017-01-24T03:19:59.182Z,13.67
2017-01-24T03:20:39.680Z,13.66
2017-01-24T03:21:20.226Z,13.76
2017-01-24T03:22:00.712Z,13.48
2017-01-24T03:22:41.194Z,13.48
2017-01-24T03:23:21.679Z,13.66
2017-01-24T03:25:19.362Z,13.56
2017-01-24T03:25:59.875Z,13.66
2017-01-24T03:26:40.335Z,13.38
2017-01-24T03:27:20.832Z,13.48
2017-01-24T03:28:01.333Z,13.57
2017-01-24T03:28:41.828Z,13.38
2017-01-24T03:29:22.311Z,13.38
2017-01-24T03:30:02.800Z,13.48
2017-01-24T03:30:43.290Z,13.28
2017-01-24T03:31:23.781Z,13.38
2017-01-24T03:32:04.273Z,13.67
2017-01-24T03:32:44.757Z,13.47
2017-01-24T03:33:25.263Z,13.76
2017-01-24T03:34:05.748Z,13.56
2017-01-24T03:34:46.241Z,13.66
2017-01-24T03:35:26.733Z,13.57
2017-01-24T03:36:07.234Z,13.47
2017-01-24T03:36:47.733Z,13.56
2017-01-24T03:37:28.219Z,13.38
2017-01-24T03:38:08.724Z,13.57
2017-01-24T03:38:49.218Z,13.48
2017-01-24T03:39:29.745Z,13.57
2017-01-24T03:40:10.220Z,13.57
2017-01-24T03:40:50.704Z,13.47
2017-01-24T03:41:31.196Z,13.67
2017-01-24T03:42:11.688Z,13.57
2017-01-24T03:42:52.177Z,13.56
2017-01-24T03:43:32.666Z,13.66
2017-01-24T03:44:13.160Z,13.47
2017-01-24T03:44:53.656Z,13.66
2017-01-24T03:45:34.129Z,13.56
2017-01-24T03:46:14.621Z,13.66
2017-01-24T03:46:55.110Z,13.66
2017-01-24T03:47:35.621Z,13.86
2017-01-24T03:48:16.104Z,13.56
2017-01-24T03:48:56.582Z,13.38
2017-01-24T03:49:37.085Z,13.76
2017-01-24T03:50:17.572Z,13.57
2017-01-24T03:50:58.068Z,13.56
2017-01-24T03:51:38.565Z,13.38
2017-01-24T03:52:19.045Z,13.66
2017-01-24T03:52:59.533Z,13.67
2017-01-24T03:53:40.012Z,13.47
2017-01-24T03:54:20.512Z,13.47
2017-01-24T03:55:01.001Z,13.47
2017-01-24T03:55:41.498Z,13.47
2017-01-24T03:56:21.978Z,13.47
2017-01-24T03:57:02.456Z,13.66
2017-01-24T03:57:42.959Z,13.57
2017-01-24T03:58:23.445Z,13.66
2017-01-24T03:59:03.945Z,13.37
2017-01-24T03:59:44.423Z,13.66
2017-01-24T04:00:24.925Z,13.76
2017-01-24T04:01:05.409Z,13.66
2017-01-24T04:01:45.893Z,13.66
2017-01-24T04:02:26.405Z,13.56
2017-01-24T04:03:06.890Z,13.57
2017-01-24T04:03:47.389Z,13.48
2017-01-24T04:04:27.879Z,13.66
2017-01-24T04:05:08.356Z,13.47
2017-01-24T04:05:48.847Z,13.57
2017-01-24T04:06:29.337Z,13.56
2017-01-24T04:07:09.847Z,13.67
2017-01-24T04:07:50.336Z,13.85
2017-01-24T04:08:30.824Z,13.56
2017-01-24T04:09:11.311Z,13.48
2017-01-24T04:09:51.799Z,13.66
2017-01-24T04:10:32.291Z,13.56
2017-01-24T04:11:12.783Z,13.66
2017-01-24T04:11:53.276Z,13.66
2017-01-24T04:12:33.761Z,13.47
2017-01-24T04:13:14.249Z,13.56
2017-01-24T04:13:54.742Z,13.57
2017-01-24T04:14:35.230Z,13.66
2017-01-24T04:15:15.723Z,13.66
2017-01-24T04:15:56.223Z,13.47
2017-01-24T04:16:36.725Z,13.47
2017-01-24T04:17:17.222Z,13.66
2017-01-24T04:17:57.725Z,13.66
2017-01-24T04:18:38.221Z,13.66
2017-01-24T04:19:18.734Z,13.57
2017-01-24T04:19:59.224Z,13.56
2017-01-24T04:20:39.739Z,13.66
2017-01-24T04:21:20.224Z,13.47
2017-01-24T04:22:00.734Z,13.56
2017-01-24T04:22:41.221Z,13.47
2017-01-24T04:23:21.715Z,13.76
2017-01-24T04:24:02.196Z,13.37
2017-01-24T04:24:42.685Z,13.56
2017-01-24T04:25:23.178Z,13.76
2017-01-24T04:26:03.665Z,13.66
2017-01-24T04:26:44.173Z,13.57
2017-01-24T04:27:24.664Z,13.47
2017-01-24T04:28:05.294Z,13.56
2017-01-24T04:28:45.770Z,13.57
2017-01-24T04:29:26.259Z,13.57
2017-01-24T04:30:06.744Z,13.67
2017-01-24T04:30:47.234Z,13.56
2017-01-24T04:31:27.721Z,13.48
2017-01-24T04:32:08.210Z,13.56
2017-01-24T04:32:48.724Z,13.56
2017-01-24T04:33:29.210Z,13.56
2017-01-24T04:34:09.705Z,13.47
2017-01-24T04:34:50.200Z,13.56
2017-01-24T04:35:30.688Z,13.56
2017-01-24T04:36:11.172Z,13.56
2017-01-24T04:36:51.658Z,13.47
2017-01-24T04:37:32.156Z,13.56
2017-01-24T04:38:12.647Z,13.56
2017-01-24T04:38:53.111Z,13.56
2017-01-24T04:39:33.615Z,13.56
2017-01-24T04:40:14.124Z,13.47
2017-01-24T04:40:54.603Z,13.76
2017-01-24T04:41:35.099Z,13.66
2017-01-24T04:42:15.601Z,13.47
2017-01-24T04:42:56.097Z,13.66
2017-01-24T04:43:36.625Z,13.76
2017-01-24T04:44:17.103Z,13.56
2017-01-24T04:44:57.597Z,13.47
2017-01-24T04:45:38.077Z,13.37
2017-01-24T04:46:18.575Z,13.37
2017-01-24T04:46:59.074Z,13.47
2017-01-24T04:47:39.561Z,13.47
2017-01-24T04:48:20.053Z,14.04
2017-01-24T04:49:00.542Z,13.56
2017-01-24T04:49:41.053Z,13.66
2017-01-24T04:50:21.543Z,13.66
2017-01-24T04:51:02.042Z,13.47
2017-01-24T04:51:42.522Z,13.66
2017-01-24T04:52:23.013Z,13.47
2017-01-24T04:53:03.517Z,13.47
2017-01-24T04:53:43.993Z,14.04
2017-01-24T04:54:24.497Z,13.66
2017-01-24T04:55:04.986Z,13.57
2017-01-24T04:55:45.483Z,13.47
2017-01-24T04:56:25.979Z,13.47
2017-01-24T04:57:06.488Z,13.47
2017-01-24T04:57:46.950Z,13.66
2017-01-24T04:58:27.467Z,13.56
2017-01-24T04:59:07.954Z,13.66
2017-01-24T04:59:48.440Z,13.47
2017-01-24T05:00:28.929Z,13.56
2017-01-24T05:01:09.409Z,13.56
2017-01-24T05:01:49.893Z,13.56
2017-01-24T05:02:30.386Z,13.95
2017-01-24T05:03:10.877Z,13.47
2017-01-24T05:03:51.373Z,13.66
2017-01-24T05:04:31.876Z,13.47
2017-01-24T05:05:12.371Z,13.66
2017-01-24T05:05:52.853Z,13.56
2017-01-24T05:06:33.327Z,13.67
2017-01-24T05:07:13.835Z,13.66
2017-01-24T05:07:54.324Z,13.56
2017-01-24T05:08:34.819Z,13.56
2017-01-24T05:09:15.319Z,13.56
2017-01-24T05:09:55.820Z,13.47
2017-01-24T05:10:36.318Z,13.95
2017-01-24T05:11:16.816Z,13.56
2017-01-24T05:11:57.317Z,13.56
2017-01-24T05:12:37.802Z,13.66
2017-01-24T05:13:18.286Z,13.66
2017-01-24T05:13:58.775Z,13.56
2017-01-24T05:14:39.275Z,13.66
2017-01-24T05:15:19.764Z,13.56
2017-01-24T05:16:00.263Z,13.47
2017-01-24T05:16:40.763Z,13.56
2017-01-24T05:17:21.260Z,13.56
2017-01-24T05:18:01.740Z,13.56
2017-01-24T05:18:42.215Z,13.47
2017-01-24T05:19:22.718Z,13.56
2017-01-24T05:20:03.209Z,13.76
2017-01-24T05:20:43.707Z,13.56
2017-01-24T05:21:24.209Z,13.56
2017-01-24T05:22:04.707Z,13.56
2017-01-24T05:22:45.199Z,13.47
2017-01-24T05:23:25.824Z,13.66
2017-01-24T05:24:06.312Z,13.56
2017-01-24T05:24:46.805Z,13.56
2017-01-24T05:25:27.294Z,13.47
2017-01-24T05:26:07.765Z,13.56
2017-01-24T05:26:48.273Z,13.56
2017-01-24T05:27:28.762Z,13.56
2017-01-24T05:28:09.259Z,13.37
2017-01-24T05:28:49.752Z,13.56
2017-01-24T05:29:30.246Z,13.66
2017-01-24T05:30:10.740Z,13.56
2017-01-24T05:30:51.227Z,13.66
2017-01-24T05:31:31.728Z,13.56
2017-01-24T05:32:12.212Z,13.76
2017-01-24T05:32:52.708Z,13.66
2017-01-24T05:33:33.196Z,13.56
2017-01-24T05:34:13.712Z,13.56
2017-01-24T05:34:54.195Z,13.47
2017-01-24T05:35:34.712Z,13.56
2017-01-24T05:36:15.196Z,13.66
2017-01-24T05:36:55.689Z,13.66
2017-01-24T05:37:36.172Z,13.56
2017-01-24T05:38:16.651Z,13.56
2017-01-24T05:38:57.153Z,13.56
2017-01-24T05:39:37.641Z,13.56
2017-01-24T05:40:18.136Z,13.47
2017-01-24T05:40:58.615Z,13.66
2017-01-24T05:41:39.103Z,13.56
2017-01-24T05:42:19.604Z,13.67
2017-01-24T05:43:00.087Z,13.66
2017-01-24T05:43:40.594Z,13.56
2017-01-24T05:44:21.083Z,13.56
2017-01-24T05:45:01.590Z,13.76
2017-01-24T05:45:42.084Z,13.85
2017-01-24T05:46:22.579Z,13.85
2017-01-24T05:47:03.079Z,13.95
2017-01-24T05:47:43.599Z,13.37
2017-01-24T05:48:24.080Z,13.56
2017-01-24T05:49:04.575Z,13.56
2017-01-24T05:49:45.056Z,13.56
2017-01-24T05:50:25.548Z,13.66
2017-01-24T05:51:06.036Z,13.56
2017-01-24T05:51:46.527Z,13.56
2017-01-24T05:52:27.036Z,13.95
2017-01-24T05:53:07.526Z,14.04
2017-01-24T05:53:48.024Z,13.85
2017-01-24T05:54:28.515Z,14.04
2017-01-24T05:55:09.005Z,14.04
2017-01-24T05:55:49.483Z,13.95
2017-01-24T05:56:29.974Z,13.95
2017-01-24T05:57:10.483Z,13.56
2017-01-24T05:57:50.969Z,13.37
2017-01-24T05:58:31.483Z,13.47
2017-01-24T05:59:11.970Z,13.66
2017-01-24T05:59:52.466Z,13.66
2017-01-24T06:00:32.960Z,13.47
2017-01-24T06:01:13.421Z,13.47
2017-01-24T06:01:53.924Z,13.47
2017-01-24T06:02:34.410Z,13.37
2017-01-24T06:03:14.909Z,13.66
2017-01-24T06:03:55.389Z,13.85
2017-01-24T06:04:35.875Z,13.85
2017-01-24T06:05:16.374Z,13.48
2017-01-24T06:05:56.859Z,13.56
2017-01-24T06:06:37.357Z,13.56
2017-01-24T06:07:17.858Z,13.47
2017-01-24T06:07:58.355Z,13.56
2017-01-24T06:08:38.852Z,13.48
2017-01-24T06:09:19.366Z,13.37
2017-01-24T06:09:59.855Z,13.66
2017-01-24T06:10:40.356Z,13.66
2017-01-24T06:11:20.847Z,13.47
2017-01-24T06:12:01.338Z,13.56
2017-01-24T06:12:41.824Z,13.37
2017-01-24T06:13:22.375Z,13.95
2017-01-24T06:14:02.858Z,13.47
2017-01-24T06:14:43.345Z,13.47
2017-01-24T06:15:23.828Z,13.47
2017-01-24T06:16:04.305Z,13.56
2017-01-24T06:16:44.817Z,13.95
2017-01-24T06:17:25.303Z,14.04
2017-01-24T06:18:05.811Z,13.37
2017-01-24T06:18:46.299Z,13.85
2017-01-24T06:19:26.797Z,14.14
2017-01-24T06:20:07.299Z,14.04
2017-01-24T06:20:47.810Z,14.04
2017-01-24T06:21:28.297Z,14.04
2017-01-24T06:22:08.791Z,13.76
2017-01-24T06:22:49.285Z,13.85
2017-01-24T06:23:29.775Z,13.85
2017-01-24T06:24:10.268Z,13.37
2017-01-24T06:24:50.761Z,13.56
2017-01-24T06:25:31.253Z,13.47
2017-01-24T06:26:11.745Z,13.56
2017-01-24T06:26:52.251Z,13.67
2017-01-24T06:27:32.739Z,13.47
2017-01-24T06:28:13.230Z,13.37
2017-01-24T06:28:53.713Z,13.47
2017-01-24T06:29:34.206Z,13.56
2017-01-24T06:30:14.698Z,13.47
2017-01-24T06:30:55.183Z,13.48
2017-01-24T06:31:35.695Z,13.47
2017-01-24T06:32:16.183Z,13.48
2017-01-24T06:32:56.677Z,13.47
2017-01-24T06:33:37.183Z,13.56
2017-01-24T06:34:17.677Z,13.66
2017-01-24T06:34:58.185Z,13.85
2017-01-24T06:35:38.694Z,13.85
2017-01-24T06:36:19.178Z,13.85
2017-01-24T06:36:59.690Z,14.04
2017-01-24T06:37:40.178Z,13.95
2017-01-24T06:38:20.670Z,14.04
2017-01-24T06:39:01.166Z,13.76
2017-01-24T06:39:41.648Z,13.66
2017-01-24T06:40:22.151Z,13.47
2017-01-24T06:41:02.645Z,13.95
2017-01-24T06:41:43.135Z,14.24
2017-01-24T06:42:23.622Z,14.04
2017-01-24T06:43:04.117Z,14.14
2017-01-24T06:43:44.614Z,13.66
2017-01-24T06:44:25.086Z,13.57
2017-01-24T06:45:05.601Z,13.56
2017-01-24T06:45:46.069Z,13.76
2017-01-24T06:46:26.565Z,13.95
2017-01-24T06:47:07.065Z,14.14
2017-01-24T06:47:47.563Z,13.66
2017-01-24T06:48:28.044Z,14.04
2017-01-24T06:49:08.533Z,13.95
2017-01-24T06:49:49.041Z,13.95
2017-01-24T06:50:29.532Z,13.86
2017-01-24T06:51:10.027Z,13.67
2017-01-24T06:51:50.510Z,13.66
2017-01-24T06:52:31.027Z,13.85
2017-01-24T06:53:11.511Z,13.76
2017-01-24T06:53:52.019Z,13.76
2017-01-24T06:54:32.505Z,14.04
2017-01-24T06:55:13.019Z,13.76
2017-01-24T06:55:53.505Z,13.85
2017-01-24T06:56:34.037Z,13.85
2017-01-24T06:57:14.536Z,13.95
2017-01-24T06:57:55.035Z,13.95
2017-01-24T06:58:35.530Z,13.76
2017-01-24T06:59:16.028Z,14.04
2017-01-24T06:59:56.713Z,14.24
2017-01-24T07:00:37.218Z,14.05
2017-01-24T07:01:17.708Z,14.05
2017-01-24T07:01:58.201Z,13.76
2017-01-24T07:02:38.701Z,13.76
2017-01-24T07:03:19.196Z,13.85
2017-01-24T07:03:59.693Z,13.95
2017-01-24T07:04:40.174Z,13.95
2017-01-24T07:05:20.663Z,14.14
2017-01-24T07:06:01.161Z,13.85
2017-01-24T07:06:41.663Z,14.04
2017-01-24T07:07:22.150Z,14.04
2017-01-24T07:08:02.648Z,14.04
2017-01-24T07:08:43.146Z,13.85
2017-01-24T07:09:23.632Z,13.76
2017-01-24T07:10:04.142Z,13.76
2017-01-24T07:10:44.622Z,13.85
2017-01-24T07:11:25.135Z,13.56
2017-01-24T07:12:05.609Z,14.05
2017-01-24T07:12:46.122Z,13.95
2017-01-24T07:13:26.611Z,14.15
2017-01-24T07:14:07.107Z,14.04
2017-01-24T07:14:47.591Z,14.05
2017-01-24T07:15:28.090Z,14.05
2017-01-24T07:16:08.588Z,13.96
2017-01-24T07:16:49.107Z,14.14
2017-01-24T07:17:29.592Z,14.14
2017-01-24T07:18:10.087Z,14.24
2017-01-24T07:18:50.590Z,14.43
2017-01-24T07:19:31.083Z,14.14
2017-01-24T07:20:11.590Z,14.04
2017-01-24T07:20:52.082Z,14.14
2017-01-24T07:21:32.586Z,14.24
2017-01-24T07:22:13.083Z,14.15
2017-01-24T07:22:53.582Z,14.14
2017-01-24T07:23:34.093Z,13.95
2017-01-24T07:24:14.587Z,14.14
2017-01-24T07:24:55.095Z,14.15
2017-01-24T07:25:35.582Z,14.04
2017-01-24T07:26:16.075Z,14.15
2017-01-24T07:26:56.557Z,14.43
2017-01-24T07:27:37.057Z,14.34
2017-01-24T07:28:17.552Z,14.15
2017-01-24T07:28:58.058Z,14.05
2017-01-24T07:29:38.551Z,14.15
2017-01-24T07:30:19.282Z,14.14
2017-01-24T07:30:59.782Z,14.15
2017-01-24T07:31:40.334Z,14.15
2017-01-24T07:32:20.831Z,14.25
2017-01-24T07:33:01.333Z,14.15
2017-01-24T07:33:41.832Z,14.24
2017-01-24T07:34:22.327Z,14.34
2017-01-24T07:35:02.847Z,14.44
2017-01-24T07:35:43.332Z,14.43
2017-01-24T07:36:23.837Z,14.24
2017-01-24T07:37:04.328Z,14.15
2017-01-24T07:37:44.821Z,14.14
2017-01-24T07:38:25.304Z,14.43
2017-01-24T07:39:05.795Z,14.34
2017-01-24T07:39:46.282Z,14.81
2017-01-24T07:40:26.773Z,14.72
2017-01-24T07:41:07.286Z,14.62
2017-01-24T07:41:47.772Z,14.81
2017-01-24T07:42:28.270Z,14.53
2017-01-24T07:43:08.766Z,14.34
2017-01-24T07:43:49.264Z,14.34
2017-01-24T07:44:29.748Z,14.53
2017-01-24T07:45:10.234Z,14.62
2017-01-24T07:45:50.726Z,14.63
2017-01-24T07:46:31.215Z,14.53
2017-01-24T07:47:11.866Z,14.63
2017-01-24T07:47:52.363Z,14.63
2017-01-24T07:48:32.858Z,14.83
2017-01-24T07:49:13.339Z,14.63
2017-01-24T07:49:53.834Z,14.53
2017-01-24T07:50:34.319Z,14.44
2017-01-24T07:51:14.824Z,14.44
2017-01-24T07:51:55.309Z,14.34
2017-01-24T07:52:35.807Z,14.44
2017-01-24T07:53:16.302Z,14.81
2017-01-24T07:53:56.790Z,14.43
2017-01-24T07:54:37.282Z,14.72
2017-01-24T07:55:17.791Z,14.73
2017-01-24T07:55:58.265Z,14.63
2017-01-24T07:56:38.757Z,14.62
2017-01-24T07:57:19.265Z,14.53
2017-01-24T07:57:59.751Z,14.63
2017-01-24T07:58:40.249Z,14.73
2017-01-24T07:59:20.753Z,14.53
2017-01-24T08:00:01.250Z,14.53
2017-01-24T08:00:41.948Z,14.34
2017-01-24T08:01:22.423Z,14.44
2017-01-24T08:03:10.240Z,14.34
2017-01-24T08:03:50.742Z,14.44
2017-01-24T08:04:31.228Z,14.25
2017-01-24T08:05:11.712Z,14.34
2017-01-24T08:05:52.199Z,14.53
2017-01-24T08:06:32.689Z,14.81
2017-01-24T08:07:13.306Z,14.73
2017-01-24T08:07:53.795Z,14.53
2017-01-24T08:08:35.231Z,14.53
2017-01-24T08:09:15.744Z,14.73
2017-01-24T08:09:56.230Z,14.63
2017-01-24T08:10:36.702Z,14.44
2017-01-24T08:11:17.207Z,14.44
2017-01-24T08:11:57.694Z,14.92
2017-01-24T08:12:38.195Z,14.53
2017-01-24T08:13:18.792Z,14.83
2017-01-24T08:13:59.272Z,14.53
2017-01-24T08:14:39.758Z,14.73
2017-01-24T08:15:20.243Z,14.63
2017-01-24T08:16:00.976Z,14.83
2017-01-24T08:16:41.459Z,14.63
2017-01-24T08:17:21.968Z,14.34
2017-01-24T08:18:02.449Z,14.44
2017-01-24T08:18:42.946Z,14.53
2017-01-24T08:19:23.425Z,14.34
2017-01-24T08:20:03.932Z,14.44
2017-01-24T08:20:44.423Z,14.34
2017-01-24T08:21:24.912Z,14.25
2017-01-24T08:22:05.403Z,14.34
2017-01-24T08:22:45.892Z,14.34
2017-01-24T08:23:26.392Z,14.34
2017-01-24T08:24:06.889Z,14.25
2017-01-24T08:24:47.390Z,14.44
2017-01-24T08:25:27.889Z,14.44
2017-01-24T08:26:08.388Z,14.53
2017-01-24T08:26:48.884Z,14.15
2017-01-24T08:27:29.386Z,14.34
2017-01-24T08:28:09.871Z,14.25
2017-01-24T08:28:50.362Z,14.44
2017-01-24T08:29:30.863Z,14.25
2017-01-24T08:30:12.002Z,14.53
2017-01-24T08:30:52.478Z,14.83
2017-01-24T08:31:32.969Z,14.53
2017-01-24T08:32:13.476Z,14.63
2017-01-24T08:32:53.964Z,14.83
2017-01-24T08:33:34.457Z,14.53
2017-01-24T08:34:14.943Z,14.63
2017-01-24T08:34:55.465Z,14.53
2017-01-24T08:35:35.946Z,14.53
2017-01-24T08:36:16.443Z,14.34
2017-01-24T08:36:56.943Z,14.34
2017-01-24T08:37:37.450Z,14.34
2017-01-24T08:38:17.941Z,14.54
2017-01-24T08:38:58.454Z,14.44
2017-01-24T08:39:38.942Z,14.63
2017-01-24T08:40:19.432Z,14.53
2017-01-24T08:40:59.918Z,14.34
2017-01-24T08:41:40.393Z,14.34
2017-01-24T08:42:20.899Z,14.34
2017-01-24T08:43:01.397Z,14.53
2017-01-24T08:43:41.894Z,14.63
2017-01-24T08:44:22.387Z,14.53
2017-01-24T08:45:02.900Z,14.83